createdAt,value
2023-03-05T00:01:33.341Z,37.84
2023-03-05T00:04:02.967Z,37.53
2023-03-05T00:06:32.079Z,37.52
2023-03-05T00:09:00.367Z,37.74
2023-03-05T00:11:33.693Z,37.56
2023-03-05T00:14:03.771Z,37.96
2023-03-05T00:16:32.350Z,38.10
2023-03-05T00:19:02.067Z,38.22
2023-03-05T00:21:41.729Z,37.78
2023-03-05T00:24:16.870Z,38.03
2023-03-05T00:26:46.214Z,38.16
2023-03-05T00:29:18.695Z,38.13
2023-03-05T00:31:46.760Z,38.33
2023-03-05T00:34:16.814Z,38.12
2023-03-05T00:36:47.319Z,38.22
2023-03-05T00:39:15.480Z,38.34
2023-03-05T00:41:44.020Z,38.49
2023-03-05T00:44:13.167Z,38.26
2023-03-05T00:46:41.330Z,38.46
2023-03-05T00:49:09.118Z,38.05
2023-03-05T00:51:36.832Z,38.48
2023-03-05T00:54:05.581Z,38.41
2023-03-05T00:56:33.796Z,38.17
2023-03-05T00:59:01.806Z,38.30
2023-03-05T01:01:29.663Z,38.47
2023-03-05T01:03:58.416Z,38.30
2023-03-05T01:06:26.252Z,38.26
2023-03-05T01:08:56.701Z,38.02
2023-03-05T01:11:25.198Z,38.43
2023-03-05T01:13:53.036Z,38.13
2023-03-05T01:16:20.977Z,37.85
2023-03-05T01:18:48.914Z,37.86
2023-03-05T01:21:16.678Z,38.05
2023-03-05T01:23:44.472Z,38.31
2023-03-05T01:26:12.288Z,37.92
2023-03-05T01:28:40.946Z,37.62
2023-03-05T01:31:12.512Z,37.90
2023-03-05T01:33:40.405Z,37.61
2023-03-05T01:36:12.660Z,37.98
2023-03-05T01:38:41.329Z,37.98
2023-03-05T01:41:09.813Z,37.86
2023-03-05T01:43:37.800Z,37.62
2023-03-05T01:46:23.919Z,37.79
2023-03-05T01:48:59.472Z,37.58
2023-03-05T01:51:30.961Z,37.75
2023-03-05T01:54:01.425Z,37.48
2023-03-05T01:56:30.031Z,37.22
2023-03-05T01:59:03.715Z,37.63
2023-03-05T02:01:38.790Z,37.41
2023-03-05T02:04:09.491Z,37.20
2023-03-05T02:06:39.079Z,37.63
2023-03-05T02:09:06.810Z,37.67
2023-03-05T02:11:36.320Z,37.74
2023-03-05T02:14:06.611Z,37.46
2023-03-05T02:16:37.316Z,37.61
2023-03-05T02:19:07.775Z,37.60
2023-03-05T02:21:45.301Z,37.87
2023-03-05T02:24:18.976Z,37.55
2023-03-05T02:26:47.757Z,37.84
2023-03-05T02:29:20.151Z,38.06
2023-03-05T02:31:48.033Z,37.58
2023-03-05T02:34:16.007Z,37.50
2023-03-05T02:36:43.822Z,37.74
2023-03-05T02:39:12.974Z,37.94
2023-03-05T02:41:40.725Z,37.69
2023-03-05T02:44:09.393Z,38.05
2023-03-05T02:46:37.122Z,38.01
2023-03-05T02:49:05.598Z,38.05
2023-03-05T02:51:33.360Z,38.05
2023-03-05T02:54:01.160Z,38.16
2023-03-05T02:56:30.214Z,38.26
2023-03-05T02:58:58.023Z,38.39
2023-03-05T03:01:28.572Z,38.34
2023-03-05T03:03:57.011Z,38.08
2023-03-05T03:06:24.628Z,38.09
2023-03-05T03:08:52.452Z,38.16
2023-03-05T03:11:21.563Z,38.32
2023-03-05T03:13:49.370Z,38.35
2023-03-05T03:16:18.321Z,38.57
2023-03-05T03:18:47.705Z,38.33
2023-03-05T03:21:25.377Z,38.25
2023-03-05T03:23:53.366Z,38.29
2023-03-05T03:26:21.205Z,38.48
2023-03-05T03:28:49.222Z,38.41
2023-03-05T03:31:17.245Z,38.60
2023-03-05T03:33:45.193Z,38.39
2023-03-05T03:36:13.018Z,38.29
2023-03-05T03:38:40.783Z,38.39
2023-03-05T03:41:09.761Z,38.39
2023-03-05T03:43:37.816Z,38.48
2023-03-05T03:46:07.324Z,38.50
2023-03-05T03:48:36.182Z,38.64
2023-03-05T03:51:05.759Z,38.52
2023-03-05T03:53:33.678Z,38.38
2023-03-05T03:56:01.644Z,38.39
2023-03-05T03:58:29.830Z,38.70
2023-03-05T04:00:57.642Z,38.27
2023-03-05T04:03:25.564Z,38.02
2023-03-05T04:05:53.441Z,38.10
2023-03-05T04:08:21.121Z,37.84
2023-03-05T04:10:49.095Z,38.11
2023-03-05T04:13:16.808Z,38.09
2023-03-05T04:15:44.779Z,38.36
2023-03-05T04:18:12.692Z,38.31
2023-03-05T04:20:40.414Z,38.07
2023-03-05T04:23:09.236Z,38.51
2023-03-05T04:25:36.995Z,38.19
2023-03-05T04:28:04.965Z,38.19
2023-03-05T04:30:33.505Z,38.17
2023-03-05T04:33:01.402Z,38.29
2023-03-05T04:35:29.207Z,38.37
2023-03-05T04:37:56.955Z,38.09
2023-03-05T04:40:24.728Z,37.96
2023-03-05T04:42:52.468Z,37.51
2023-03-05T04:45:20.217Z,37.22
2023-03-05T04:47:48.164Z,37.11
2023-03-05T04:50:16.366Z,36.98
2023-03-05T04:52:45.532Z,36.57
2023-03-05T04:55:15.227Z,36.43
2023-03-05T04:57:44.824Z,36.28
2023-03-05T05:00:15.500Z,36.06
2023-03-05T05:02:45.764Z,35.61
2023-03-05T05:05:17.128Z,35.25
2023-03-05T05:07:45.660Z,35.31
2023-03-05T05:10:15.212Z,34.99
2023-03-05T05:12:43.066Z,35.43
2023-03-05T05:15:12.353Z,35.44
2023-03-05T05:17:40.104Z,35.53
2023-03-05T05:20:11.125Z,35.36
2023-03-05T05:22:38.883Z,35.13
2023-03-05T05:25:06.667Z,34.87
2023-03-05T05:27:34.907Z,34.80
2023-03-05T05:30:04.318Z,35.03
2023-03-05T05:32:32.936Z,34.98
2023-03-05T05:35:00.898Z,34.40
2023-03-05T05:37:30.247Z,34.79
2023-03-05T05:39:58.389Z,34.71
2023-03-05T05:42:26.318Z,34.79
2023-03-05T05:44:55.665Z,34.83
2023-03-05T05:47:23.425Z,34.72
2023-03-05T05:49:51.394Z,34.58
2023-03-05T05:52:19.211Z,34.84
2023-03-05T05:54:47.431Z,34.97
2023-03-05T05:57:15.801Z,34.98
2023-03-05T05:59:43.453Z,35.63
2023-03-05T06:02:12.075Z,35.43
2023-03-05T06:04:40.530Z,34.88
2023-03-05T06:07:08.903Z,35.45
2023-03-05T06:09:38.144Z,35.04
2023-03-05T06:12:06.971Z,35.31
2023-03-05T06:14:35.895Z,35.40
2023-03-05T06:17:03.648Z,35.43
2023-03-05T06:19:31.386Z,35.18
2023-03-05T06:21:59.255Z,35.40
2023-03-05T06:24:27.211Z,35.53
2023-03-05T06:26:56.559Z,35.37
2023-03-05T06:29:24.456Z,35.19
2023-03-05T06:31:52.285Z,35.44
2023-03-05T06:34:20.060Z,35.33
2023-03-05T06:36:47.882Z,35.36
2023-03-05T06:39:15.648Z,35.40
2023-03-05T06:41:44.766Z,34.96
2023-03-05T06:44:12.669Z,35.07
2023-03-05T06:46:40.673Z,35.18
2023-03-05T06:49:09.789Z,34.91
2023-03-05T06:51:39.805Z,35.01
2023-03-05T06:54:11.124Z,35.14
2023-03-05T06:56:41.906Z,35.53
2023-03-05T06:59:11.440Z,35.69
2023-03-05T07:01:39.325Z,35.18
2023-03-05T07:04:07.324Z,35.45
2023-03-05T07:06:38.465Z,35.36
2023-03-05T07:09:07.442Z,35.23
2023-03-05T07:11:35.531Z,35.71
2023-03-05T07:14:04.340Z,36.19
2023-03-05T07:16:34.404Z,36.04
2023-03-05T07:19:04.388Z,36.28
2023-03-05T07:21:34.268Z,36.68
2023-03-05T07:24:04.504Z,37.08
2023-03-05T07:26:35.932Z,37.16
2023-03-05T07:29:04.438Z,37.11
2023-03-05T07:31:32.981Z,36.57
2023-03-05T07:34:03.532Z,36.16
2023-03-05T07:36:31.967Z,36.58
2023-03-05T07:38:59.953Z,35.99
2023-03-05T07:41:27.962Z,35.78
2023-03-05T07:43:56.276Z,36.16
2023-03-05T07:46:30.315Z,36.05
2023-03-05T07:49:00.155Z,36.02
2023-03-05T07:51:28.847Z,35.99
2023-03-05T07:53:58.717Z,35.84
2023-03-05T07:56:32.169Z,35.83
2023-03-05T07:59:01.082Z,36.09
2023-03-05T08:01:32.624Z,35.39
2023-03-05T08:04:00.383Z,35.49
2023-03-05T08:06:28.241Z,35.08
2023-03-05T08:08:56.118Z,35.09
2023-03-05T08:11:24.293Z,35.42
2023-03-05T08:13:52.146Z,35.25
2023-03-05T08:16:21.881Z,34.90
2023-03-05T08:18:49.741Z,34.62
2023-03-05T08:21:20.715Z,35.28
2023-03-05T08:23:48.871Z,35.34
2023-03-05T08:26:21.278Z,34.90
2023-03-05T08:28:50.364Z,34.98
2023-03-05T08:31:21.607Z,35.23
2023-03-05T08:33:53.743Z,34.86
2023-03-05T08:36:23.113Z,35.02
2023-03-05T08:38:51.408Z,35.11
2023-03-05T08:41:19.918Z,34.97
2023-03-05T08:43:49.325Z,34.79
2023-03-05T08:46:17.684Z,34.78
2023-03-05T08:48:45.473Z,34.68
2023-03-05T08:51:16.084Z,34.81
2023-03-05T08:53:45.436Z,33.92
2023-03-05T08:56:14.568Z,33.86
2023-03-05T08:58:42.982Z,33.84
2023-03-05T09:01:11.094Z,34.15
2023-03-05T09:03:39.430Z,34.27
2023-03-05T09:06:10.144Z,34.40
2023-03-05T09:08:38.164Z,33.57
2023-03-05T09:11:08.969Z,33.80
2023-03-05T09:13:36.772Z,33.66
2023-03-05T09:16:07.320Z,32.25
2023-03-05T09:18:37.037Z,30.23
2023-03-05T09:21:06.198Z,30.80
2023-03-05T09:23:34.736Z,30.28
2023-03-05T09:26:05.610Z,30.63
2023-03-05T09:28:35.482Z,31.36
2023-03-05T09:31:04.933Z,31.58
2023-03-05T09:33:35.015Z,30.94
2023-03-05T09:36:03.872Z,31.12
2023-03-05T09:38:32.455Z,30.63
2023-03-05T09:41:19.295Z,29.83
2023-03-05T09:44:12.211Z,29.93
2023-03-05T09:47:02.664Z,29.94
2023-03-05T09:49:57.785Z,30.12
2023-03-05T09:52:57.985Z,29.58
2023-03-05T09:55:41.138Z,30.54
2023-03-05T09:58:16.717Z,30.23
2023-03-05T10:00:50.026Z,30.04
2023-03-05T10:03:30.543Z,29.74
2023-03-05T10:06:15.533Z,29.68
2023-03-05T10:08:53.586Z,29.61
2023-03-05T10:11:30.522Z,30.05
2023-03-05T10:13:58.730Z,30.08
2023-03-05T10:16:54.476Z,30.08
2023-03-05T10:19:46.526Z,30.96
2023-03-05T10:22:22.923Z,30.89
2023-03-05T10:25:24.258Z,31.05
2023-03-05T10:28:02.131Z,31.98
2023-03-05T10:31:12.046Z,30.87
2023-03-05T10:33:53.623Z,30.66
2023-03-05T10:36:46.126Z,30.53
2023-03-05T10:39:42.612Z,30.76
2023-03-05T10:42:40.221Z,30.74
2023-03-05T10:45:29.338Z,30.59
2023-03-05T10:48:14.300Z,30.66
2023-03-05T10:50:54.378Z,31.18
2023-03-05T10:53:48.094Z,31.17
2023-03-05T10:56:18.983Z,31.05
2023-03-05T10:58:55.160Z,30.61
2023-03-05T11:04:32.563Z,30.42
2023-03-05T11:07:23.189Z,30.79
2023-03-05T11:10:00.088Z,30.40
2023-03-05T11:12:31.988Z,30.40
2023-03-05T11:15:26.046Z,30.22
2023-03-05T11:18:22.373Z,30.33
2023-03-05T11:20:51.279Z,30.60
2023-03-05T11:23:21.014Z,30.94
2023-03-05T11:25:55.033Z,31.10
2023-03-05T11:28:38.390Z,31.49
2023-03-05T11:31:15.807Z,31.81
2023-03-05T11:34:01.192Z,32.32
2023-03-05T11:36:40.896Z,32.73
2023-03-05T11:39:12.178Z,33.04
2023-03-05T11:41:48.176Z,33.55
2023-03-05T11:44:30.442Z,34.33
2023-03-05T11:47:26.715Z,34.91
2023-03-05T11:50:16.187Z,35.48
2023-03-05T11:52:59.186Z,36.17
2023-03-05T11:55:40.350Z,36.01
2023-03-05T11:58:33.159Z,36.11
2023-03-05T12:01:03.836Z,35.76
2023-03-05T12:03:38.883Z,34.78
2023-03-05T12:06:21.263Z,34.55
2023-03-05T12:08:56.470Z,34.16
2023-03-05T12:11:33.219Z,33.70
2023-03-05T12:14:32.234Z,33.49
2023-03-05T12:17:12.075Z,33.35
2023-03-05T12:19:48.539Z,33.35
2023-03-05T12:22:24.329Z,33.35
2023-03-05T12:24:52.520Z,33.46
2023-03-05T12:27:37.194Z,33.28
2023-03-05T12:30:05.618Z,33.44
2023-03-05T12:32:34.074Z,33.55
2023-03-05T12:35:26.011Z,33.87
2023-03-05T12:37:53.726Z,33.88
2023-03-05T12:40:24.623Z,34.32
2023-03-05T12:43:01.356Z,34.08
2023-03-05T12:45:40.495Z,33.91
2023-03-05T12:48:12.760Z,34.16
2023-03-05T12:50:40.428Z,34.35
2023-03-05T12:53:26.325Z,34.18
2023-03-05T12:56:19.468Z,34.04
2023-03-05T12:58:53.914Z,33.82
2023-03-05T13:01:42.700Z,33.41
2023-03-05T13:04:23.731Z,33.60
2023-03-05T13:07:07.626Z,33.14
2023-03-05T13:09:36.634Z,33.45
2023-03-05T13:12:11.123Z,33.59
2023-03-05T13:14:47.684Z,33.12
2023-03-05T13:17:38.259Z,33.34
2023-03-05T13:20:31.508Z,32.95
2023-03-05T13:23:26.778Z,32.95
2023-03-05T13:26:00.748Z,33.25
2023-03-05T13:28:29.608Z,32.95
2023-03-05T13:31:04.999Z,33.04
2023-03-05T13:33:35.947Z,32.76
2023-03-05T13:36:05.356Z,32.95
2023-03-05T13:38:40.511Z,32.79
2023-03-05T13:41:11.318Z,32.94
2023-03-05T13:43:44.689Z,32.74
2023-03-05T13:46:13.115Z,32.53
2023-03-05T13:48:41.025Z,32.90
2023-03-05T13:51:09.952Z,32.61
2023-03-05T13:53:37.925Z,32.92
2023-03-05T13:56:08.577Z,33.02
2023-03-05T13:58:55.016Z,33.01
2023-03-05T14:01:50.946Z,33.39
2023-03-05T14:04:26.272Z,33.49
2023-03-05T14:07:01.778Z,34.16
2023-03-05T14:09:38.767Z,33.82
2023-03-05T14:12:30.529Z,33.86
2023-03-05T14:14:59.844Z,34.18
2023-03-05T14:17:31.179Z,33.98
2023-03-05T14:20:14.748Z,33.95
2023-03-05T14:22:45.513Z,34.08
2023-03-05T14:25:38.885Z,34.16
2023-03-05T14:28:18.775Z,34.36
2023-03-05T14:30:53.052Z,34.19
2023-03-05T14:33:27.616Z,34.62
2023-03-05T14:35:57.891Z,34.56
2023-03-05T14:38:30.363Z,34.97
2023-03-05T14:40:58.462Z,34.92
2023-03-05T14:43:26.175Z,34.89
2023-03-05T14:45:54.093Z,34.73
2023-03-05T14:48:21.880Z,34.81
2023-03-05T14:50:56.333Z,34.91
2023-03-05T14:53:27.494Z,35.59
2023-03-05T14:55:59.410Z,35.93
2023-03-05T14:58:32.444Z,35.71
2023-03-05T15:01:00.462Z,35.22
2023-03-05T15:03:28.314Z,35.39
2023-03-05T15:05:58.844Z,35.43
2023-03-05T15:08:30.027Z,35.10
2023-03-05T15:10:58.763Z,35.43
2023-03-05T15:13:27.340Z,35.70
2023-03-05T15:15:55.507Z,36.02
2023-03-05T15:18:24.064Z,35.98
2023-03-05T15:20:53.357Z,36.32
2023-03-05T15:23:21.549Z,36.57
2023-03-05T15:25:50.178Z,36.51
2023-03-05T15:28:18.479Z,36.84
2023-03-05T15:30:47.367Z,36.57
2023-03-05T15:33:18.327Z,36.38
2023-03-05T15:35:46.296Z,37.06
2023-03-05T15:38:15.546Z,37.12
2023-03-05T15:40:44.297Z,37.44
2023-03-05T15:43:12.078Z,37.09
2023-03-05T15:45:40.009Z,37.16
2023-03-05T15:48:08.262Z,37.30
2023-03-05T15:50:36.207Z,37.23
2023-03-05T15:53:04.019Z,37.80
2023-03-05T15:55:31.610Z,37.53
2023-03-05T15:57:59.571Z,37.44
2023-03-05T16:00:30.893Z,37.37
2023-03-05T16:02:58.768Z,37.48
2023-03-05T16:05:26.944Z,37.57
2023-03-05T16:07:55.908Z,37.81
2023-03-05T16:10:26.881Z,37.60
2023-03-05T16:13:02.441Z,37.96
2023-03-05T16:15:33.066Z,38.11
2023-03-05T16:18:05.107Z,38.68
2023-03-05T16:20:36.472Z,39.03
2023-03-05T16:23:05.062Z,38.71
2023-03-05T16:25:32.988Z,38.53
2023-03-05T16:28:00.726Z,38.50
2023-03-05T16:30:28.782Z,38.34
2023-03-05T16:32:56.582Z,37.94
2023-03-05T16:35:24.525Z,37.85
2023-03-05T16:37:52.513Z,38.12
2023-03-05T16:40:20.340Z,38.51
2023-03-05T16:42:48.177Z,38.00
2023-03-05T16:45:15.775Z,38.27
2023-03-05T16:47:43.526Z,38.54
2023-03-05T16:50:12.274Z,38.65
2023-03-05T16:52:40.040Z,38.63
2023-03-05T16:55:08.361Z,38.75
2023-03-05T16:57:38.904Z,39.43
2023-03-05T17:00:09.261Z,39.35
2023-03-05T17:02:36.976Z,39.58
2023-03-05T17:05:05.148Z,39.24
2023-03-05T17:07:32.876Z,39.69
2023-03-05T17:10:00.669Z,39.71
2023-03-05T17:12:28.407Z,39.89
2023-03-05T17:14:56.200Z,39.71
2023-03-05T17:17:24.439Z,39.86
2023-03-05T17:19:52.445Z,40.42
2023-03-05T17:22:20.547Z,40.27
2023-03-05T17:24:48.670Z,40.32
2023-03-05T17:27:18.900Z,40.63
2023-03-05T17:29:46.677Z,40.58
2023-03-05T17:32:14.901Z,40.13
2023-03-05T17:34:43.550Z,40.53
2023-03-05T17:37:12.642Z,40.37
2023-03-05T17:39:40.406Z,40.32
2023-03-05T17:42:08.258Z,40.63
2023-03-05T17:44:36.041Z,40.31
2023-03-05T17:47:04.284Z,40.45
2023-03-05T17:49:31.999Z,40.49
2023-03-05T17:52:00.118Z,40.87
2023-03-05T17:54:28.265Z,41.35
2023-03-05T17:56:57.114Z,40.76
2023-03-05T17:59:25.723Z,41.17
2023-03-05T18:01:53.494Z,40.71
2023-03-05T18:04:21.718Z,40.77
2023-03-05T18:06:49.587Z,42.37
2023-03-05T18:09:17.739Z,41.59
2023-03-05T18:11:45.520Z,40.89
2023-03-05T18:14:15.796Z,41.09
2023-03-05T18:16:45.402Z,41.06
2023-03-05T18:19:13.253Z,40.54
2023-03-05T18:21:42.020Z,41.06
2023-03-05T18:24:10.109Z,40.95
2023-03-05T18:26:37.819Z,41.52
2023-03-05T18:29:05.700Z,41.47
2023-03-05T18:31:33.351Z,43.07
2023-03-05T18:34:01.430Z,43.64
2023-03-05T18:36:29.122Z,43.67
2023-03-05T18:38:56.956Z,42.91
2023-03-05T18:41:28.002Z,42.16
2023-03-05T18:43:56.083Z,42.12
2023-03-05T18:46:24.134Z,42.12
2023-03-05T18:48:51.784Z,41.57
2023-03-05T18:51:21.758Z,41.84
2023-03-05T18:53:51.892Z,42.44
2023-03-05T18:56:19.549Z,42.39
2023-03-05T18:58:47.965Z,41.54
2023-03-05T19:01:17.757Z,41.16
2023-03-05T19:03:47.150Z,40.71
2023-03-05T19:06:16.228Z,40.49
2023-03-05T19:08:44.917Z,40.18
2023-03-05T19:11:21.181Z,39.29
2023-03-05T19:13:51.235Z,39.64
2023-03-05T19:16:22.015Z,40.12
2023-03-05T19:19:13.437Z,38.80
2023-03-05T19:21:42.765Z,38.60
2023-03-05T19:24:11.657Z,38.76
2023-03-05T19:26:40.579Z,38.17
2023-03-05T19:29:09.216Z,38.46
2023-03-05T19:31:37.634Z,37.95
2023-03-05T19:34:06.056Z,37.68
2023-03-05T19:36:35.482Z,38.15
2023-03-05T19:39:05.861Z,37.42
2023-03-05T19:41:34.407Z,38.14
2023-03-05T19:44:04.048Z,36.94
2023-03-05T19:46:32.561Z,36.37
2023-03-05T19:49:00.824Z,36.92
2023-03-05T19:51:29.381Z,36.83
2023-03-05T19:53:57.261Z,36.43
2023-03-05T19:56:25.365Z,36.29
2023-03-05T19:58:53.114Z,36.47
2023-03-05T20:01:27.303Z,35.24
2023-03-05T20:03:57.405Z,35.74
2023-03-05T20:06:26.536Z,35.72
2023-03-05T20:08:55.332Z,35.82
2023-03-05T20:11:24.032Z,34.56
2023-03-05T20:13:53.820Z,35.38
2023-03-05T20:16:24.254Z,35.60
2023-03-05T20:18:54.969Z,35.05
2023-03-05T20:21:28.837Z,35.92
2023-03-05T20:23:59.818Z,37.83
2023-03-05T20:26:28.196Z,37.82
2023-03-05T20:28:57.597Z,37.55
2023-03-05T20:31:27.392Z,36.00
2023-03-05T20:33:56.455Z,35.42
2023-03-05T20:36:24.648Z,36.08
2023-03-05T20:38:52.356Z,35.27
2023-03-05T20:41:23.478Z,35.66
2023-03-05T20:43:52.247Z,35.95
2023-03-05T20:46:29.190Z,36.13
2023-03-05T20:48:59.381Z,36.22
2023-03-05T20:51:31.837Z,36.68
2023-03-05T20:54:04.215Z,36.18
2023-03-05T20:56:33.912Z,36.61
2023-03-05T20:59:05.174Z,35.58
2023-03-05T21:01:35.541Z,36.03
2023-03-05T21:04:04.254Z,37.30
2023-03-05T21:06:33.643Z,36.00
2023-03-05T21:09:01.770Z,36.40
2023-03-05T21:11:29.567Z,35.36
2023-03-05T21:13:57.443Z,35.76
2023-03-05T21:16:27.521Z,36.35
2023-03-05T21:18:57.376Z,35.92
2023-03-05T21:21:25.730Z,35.27
2023-03-05T21:23:55.671Z,35.51
2023-03-05T21:26:23.433Z,35.86
2023-03-05T21:28:51.253Z,35.29
2023-03-05T21:31:21.577Z,34.95
2023-03-05T21:33:51.292Z,35.36
2023-03-05T21:36:19.449Z,35.49
2023-03-05T21:38:48.707Z,34.72
2023-03-05T21:41:18.245Z,34.69
2023-03-05T21:43:46.657Z,35.25
2023-03-05T21:46:14.700Z,35.53
2023-03-05T21:48:42.565Z,35.08
2023-03-05T21:51:39.461Z,35.55
2023-03-05T21:54:28.974Z,35.26
2023-03-05T21:56:56.921Z,35.55
2023-03-05T21:59:24.882Z,35.83
2023-03-05T22:01:52.721Z,35.72
2023-03-05T22:04:20.402Z,36.02
2023-03-05T22:06:48.425Z,36.44
2023-03-05T22:09:16.451Z,35.14
2023-03-05T22:11:44.456Z,35.49
2023-03-05T22:14:12.145Z,35.90
2023-03-05T22:16:40.071Z,35.91
2023-03-05T22:19:07.904Z,36.15
2023-03-05T22:21:35.612Z,36.48
2023-03-05T22:24:04.423Z,35.87
2023-03-05T22:26:38.415Z,37.03
2023-03-05T22:29:08.753Z,35.95
2023-03-05T22:31:36.451Z,35.74
2023-03-05T22:34:04.629Z,35.71
2023-03-05T22:36:32.621Z,36.26
2023-03-05T22:39:00.506Z,35.81
2023-03-05T22:41:28.269Z,35.81
2023-03-05T22:43:56.111Z,35.88
2023-03-05T22:46:26.576Z,36.17
2023-03-05T22:48:54.448Z,35.86
2023-03-05T22:51:22.355Z,35.77
2023-03-05T22:53:50.061Z,35.65
2023-03-05T22:56:20.525Z,35.91
2023-03-05T22:58:49.124Z,35.56
2023-03-05T23:01:22.640Z,34.79
2023-03-05T23:04:49.606Z,34.69
2023-03-05T23:07:23.195Z,34.90
2023-03-05T23:10:07.223Z,34.81
2023-03-05T23:12:38.302Z,35.15
2023-03-05T23:15:10.318Z,35.30
2023-03-05T23:17:38.301Z,35.51
2023-03-05T23:20:09.716Z,35.04
2023-03-05T23:22:39.632Z,35.37
2023-03-05T23:25:07.991Z,34.92
2023-03-05T23:27:36.298Z,34.79
2023-03-05T23:30:16.427Z,34.70
2023-03-05T23:33:05.383Z,34.81
2023-03-05T23:35:36.463Z,34.69
2023-03-05T23:38:08.435Z,34.76
2023-03-05T23:40:40.220Z,34.56
2023-03-05T23:43:08.452Z,35.09
2023-03-05T23:45:36.832Z,35.10
2023-03-05T23:48:04.930Z,34.83
2023-03-05T23:50:35.276Z,35.07
2023-03-05T23:53:04.661Z,34.97
2023-03-05T23:55:40.045Z,35.02
2023-03-05T23:58:08.337Z,35.04
